Time;durP1;ratioP1;P1;durP2;ratioP2;P2;SDS_P1;SDS_P2;PMS_P1;PMS_P2;Temp;Humidity;BMP_temperature;BMP_pressure;BME280_temperature;BME280_humidity;BME280_pressure;Samples;Min_cycle;Max_cycle;Signal;HPM_P1;HPM_P2
2023/06/09 00:01:15;;;;;;;;;;;;;;;18.03;58.09;99479.03;3172199;28;20058;-65
2023/06/09 00:02:50;;;;;;;;;;;;;;;18.06;57.77;99476.16;3159294;28;19924;-65
2023/06/09 00:04:23;;;;;;;;;;;;;;;18.06;57.71;99478.78;3168806;28;20611;-65
2023/06/09 00:05:55;;;;;;;;;;;;;;;18.07;57.80;99478.69;3171217;28;19928;-65
2023/06/09 00:07:26;;;;;;;;;;;;;;;18.09;57.52;99481.19;3172102;28;20293;-65
2023/06/09 00:08:58;;;;;;;;;;;;;;;18.11;57.60;99489.81;3171907;28;20352;-65
2023/06/09 00:10:30;;;;;;;;;;;;;;;18.12;57.76;99483.56;3171616;28;20388;-65
2023/06/09 00:12:00;;;;;;;;;;;;;;;18.13;57.50;99490.50;3171924;28;20470;-65
2023/06/09 00:13:32;;;;;;;;;;;;;;;18.14;57.30;99490.38;3171749;28;19923;-65
2023/06/09 00:15:03;;;;;;;;;;;;;;;18.16;57.50;99496.38;3171787;28;19924;-65
2023/06/09 00:16:37;;;;;;;;;;;;;;;18.19;57.44;99495.28;3171865;28;19988;-66
2023/06/09 00:18:09;;;;;;;;;;;;;;;18.18;57.24;99494.44;3171635;28;20010;-69
2023/06/09 00:19:41;;;;;;;;;;;;;;;18.19;57.21;99496.13;3171426;28;20600;-68
2023/06/09 00:21:15;;;;;;;;;;;;;;;18.21;57.14;99489.88;3170840;28;19928;-68
2023/06/09 00:22:48;;;;;;;;;;;;;;;18.23;57.18;99495.88;3171716;28;19924;-68
2023/06/09 00:24:20;;;;;;;;;;;;;;;18.23;57.11;99491.44;3171695;28;19928;-67
2023/06/09 00:25:51;;;;;;;;;;;;;;;18.23;56.97;99487.97;3171725;28;19924;-68
2023/06/09 00:27:24;;;;;;;;;;;;;;;18.22;56.91;99492.41;3171833;28;19924;-67
2023/06/09 00:28:56;;;;;;;;;;;;;;;18.22;57.06;99489.78;3171304;28;19935;-67
2023/06/09 00:30:27;;;;;;;;;;;;;;;18.22;57.07;99495.03;3171713;28;19924;-67
2023/06/09 00:31:58;;;;;;;;;;;;;;;18.22;57.07;99492.41;3170370;28;19935;-67
2023/06/09 00:33:29;;;;;;;;;;;;;;;18.22;56.94;99489.78;3171282;28;19931;-68
2023/06/09 00:35:02;;;;;;;;;;;;;;;18.21;57.12;99484.59;3171297;28;19931;-67
2023/06/09 00:36:33;;;;;;;;;;;;;;;18.19;57.21;99479.47;3171394;28;20409;-67
2023/06/09 00:38:05;;;;;;;;;;;;;;;18.21;57.09;99481.97;3171615;28;19928;-68
2023/06/09 00:39:35;;;;;;;;;;;;;;;18.21;57.20;99481.97;3171163;28;19928;-68
2023/06/09 00:41:07;;;;;;;;;;;;;;;18.23;57.14;99485.34;3168634;28;19928;-68
2023/06/09 00:42:39;;;;;;;;;;;;;;;18.23;57.02;99483.53;3171758;28;19931;-68
2023/06/09 00:44:09;;;;;;;;;;;;;;;18.22;57.29;99481.88;3171139;28;19985;-68
2023/06/09 00:45:41;;;;;;;;;;;;;;;18.22;57.03;99481.00;3171293;28;20029;-68
2023/06/09 00:47:12;;;;;;;;;;;;;;;18.22;57.29;99484.50;3171463;28;20576;-68
2023/06/09 00:48:43;;;;;;;;;;;;;;;18.24;57.27;99476.44;3171021;28;19924;-67
2023/06/09 00:50:19;;;;;;;;;;;;;;;18.25;57.25;99478.97;3171131;28;19928;-67
2023/06/09 00:51:51;;;;;;;;;;;;;;;18.23;57.19;99475.63;3171177;28;19975;-67
2023/06/09 00:53:23;;;;;;;;;;;;;;;18.25;57.18;99480.75;3171623;28;20397;-68
2023/06/09 00:54:54;;;;;;;;;;;;;;;18.24;57.16;99477.28;3171335;28;19950;-66
2023/06/09 00:56:26;;;;;;;;;;;;;;;18.25;57.20;99478.13;3171203;28;19947;-67
2023/06/09 00:58:00;;;;;;;;;;;;;;;18.25;57.21;99472.84;3171352;28;20462;-67
2023/06/09 00:59:33;;;;;;;;;;;;;;;18.25;57.14;99472.84;3170736;28;19924;-67
2023/06/09 01:01:05;;;;;;;;;;;;;;;18.25;57.21;99478.97;3171153;28;20393;-67
2023/06/09 01:02:38;;;;;;;;;;;;;;;18.27;57.07;99470.94;3170845;28;19967;-66
2023/06/09 01:04:09;;;;;;;;;;;;;;;18.28;57.33;99475.22;3171227;28;19927;-67
2023/06/09 01:05:44;;;;;;;;;;;;;;;18.28;57.26;99477.84;3170739;28;19973;-67
2023/06/09 01:07:22;;;;;;;;;;;;;;;18.25;57.33;99478.97;3169596;28;19928;-67
2023/06/09 01:08:57;;;;;;;;;;;;;;;18.20;57.40;99473.22;3171221;28;19924;-68
2023/06/09 01:10:32;;;;;;;;;;;;;;;18.17;57.72;99478.75;3171276;28;19928;-66
2023/06/09 01:12:08;;;;;;;;;;;;;;;18.14;57.71;99481.66;3171053;28;20487;-67
2023/06/09 01:13:49;;;;;;;;;;;;;;;18.11;57.95;99472.19;3171122;28;20086;-67
2023/06/09 01:15:23;;;;;;;;;;;;;;;18.10;57.91;99477.56;3171071;28;19931;-67
2023/06/09 01:16:59;;;;;;;;;;;;;;;18.07;57.96;99473.41;3171021;28;19969;-67
2023/06/09 01:18:31;;;;;;;;;;;;;;;18.04;57.89;99475.44;3171028;28;19935;-68
2023/06/09 01:20:05;;;;;;;;;;;;;;;18.04;57.95;99467.53;3170801;28;20093;-67
2023/06/09 01:21:42;;;;;;;;;;;;;;;18.06;58.14;99474.34;3170810;28;19930;-66
2023/06/09 01:23:16;;;;;;;;;;;;;;;18.07;57.83;99476.03;3170912;28;19928;-67
2023/06/09 01:24:53;;;;;;;;;;;;;;;18.07;57.95;99478.69;3171046;28;19978;-66
2023/06/09 01:26:28;;;;;;;;;;;;;;;18.07;57.86;99477.81;3170958;28;19928;-67
2023/06/09 01:28:02;;;;;;;;;;;;;;;18.06;58.14;99474.34;3169964;28;19923;-66
2023/06/09 01:29:36;;;;;;;;;;;;;;;18.05;58.17;99479.75;3167914;28;19928;-66
2023/06/09 01:31:11;;;;;;;;;;;;;;;18.03;58.12;99482.50;3171149;28;19931;-66
2023/06/09 01:32:43;;;;;;;;;;;;;;;18.03;58.23;99485.16;3167210;28;20064;-66
2023/06/09 01:34:15;;;;;;;;;;;;;;;18.03;58.05;99482.50;3170843;28;19928;-66
2023/06/09 01:35:47;;;;;;;;;;;;;;;18.02;58.05;99480.00;3167023;28;19935;-66
2023/06/09 01:37:18;;;;;;;;;;;;;;;18.04;58.11;99488.59;3170830;28;20364;-66
2023/06/09 01:38:49;;;;;;;;;;;;;;;18.03;58.14;99481.69;3170883;28;19934;-67
2023/06/09 01:40:20;;;;;;;;;;;;;;;18.02;58.05;99488.75;3170652;28;20428;-67
2023/06/09 01:41:53;;;;;;;;;;;;;;;18.01;57.94;99486.22;3170996;28;19923;-68
2023/06/09 01:43:24;;;;;;;;;;;;;;;18.01;57.99;99489.69;3162333;28;19988;-67
2023/06/09 01:44:56;;;;;;;;;;;;;;;18.01;57.79;99488.84;3170621;28;20010;-66
2023/06/09 01:46:27;;;;;;;;;;;;;;;18.03;57.91;99484.31;3170676;28;19924;-66
2023/06/09 01:47:59;;;;;;;;;;;;;;;18.03;57.76;99479.03;3170626;28;20477;-66
2023/06/09 01:49:35;;;;;;;;;;;;;;;18.03;57.73;99481.69;3170888;28;19935;-66
2023/06/09 01:51:09;;;;;;;;;;;;;;;18.03;57.73;99482.50;3170403;28;19972;-67
2023/06/09 01:52:42;;;;;;;;;;;;;;;18.04;57.60;99478.91;3170760;28;19977;-67
2023/06/09 01:54:17;;;;;;;;;;;;;;;18.06;57.43;99481.44;3170755;28;19928;-68
2023/06/09 01:55:50;;;;;;;;;;;;;;;18.04;57.36;99470.16;3170263;28;20324;-67
2023/06/09 01:57:28;;;;;;;;;;;;;;;18.02;57.33;99475.56;3170783;28;20348;-67
2023/06/09 01:59:05;;;;;;;;;;;;;;;18.02;57.45;99466.84;3170289;28;20328;-67
2023/06/09 02:00:36;;;;;;;;;;;;;;;18.02;57.51;99469.47;3170722;28;19977;-67
2023/06/09 02:02:10;;;;;;;;;;;;;;;18.01;57.27;99470.41;3170565;28;20011;-67
2023/06/09 02:03:42;;;;;;;;;;;;;;;17.98;57.20;99466.22;3170448;28;20364;-67
2023/06/09 02:05:15;;;;;;;;;;;;;;;17.96;57.40;99466.38;3170488;28;20388;-67
2023/06/09 02:06:47;;;;;;;;;;;;;;;17.98;57.15;99465.41;3170777;28;20015;-66
2023/06/09 02:08:18;;;;;;;;;;;;;;;17.95;57.09;99462.06;3170717;28;20547;-66
2023/06/09 02:09:50;;;;;;;;;;;;;;;17.96;56.93;99463.72;3171038;28;19938;-67
2023/06/09 02:11:21;;;;;;;;;;;;;;;17.95;57.02;99467.34;3173260;28;20452;-66
2023/06/09 02:12:54;;;;;;;;;;;;;;;17.95;57.12;99467.34;3173257;28;20324;-65
2023/06/09 02:14:32;;;;;;;;;;;;;;;17.95;57.07;99466.47;3173214;28;19923;-65
2023/06/09 02:16:04;;;;;;;;;;;;;;;17.95;57.11;99466.47;3173027;28;20411;-65
2023/06/09 02:17:36;;;;;;;;;;;;;;;17.95;56.89;99471.75;3172631;28;19924;-64
2023/06/09 02:19:07;;;;;;;;;;;;;;;17.93;57.01;99465.78;3173588;28;20044;-64
2023/06/09 02:20:39;;;;;;;;;;;;;;;17.92;56.86;99467.59;3172861;28;19976;-64
2023/06/09 02:22:10;;;;;;;;;;;;;;;17.90;57.14;99468.66;3172870;28;19924;-64
2023/06/09 02:23:42;;;;;;;;;;;;;;;17.89;57.10;99470.44;3173162;28;19935;-64
2023/06/09 02:25:14;;;;;;;;;;;;;;;17.89;56.90;99465.16;3172727;28;19935;-64
2023/06/09 02:26:45;;;;;;;;;;;;;;;17.89;56.93;99470.44;3173068;28;19928;-64
2023/06/09 02:28:18;;;;;;;;;;;;;;;17.89;57.06;99469.59;3169952;28;19923;-65
2023/06/09 02:29:49;;;;;;;;;;;;;;;17.87;56.99;99469.75;3168837;28;19934;-64
2023/06/09 02:31:20;;;;;;;;;;;;;;;17.86;57.22;99462.78;3172871;28;19924;-64
2023/06/09 02:32:52;;;;;;;;;;;;;;;17.85;57.05;99469.03;3172767;28;19930;-64
2023/06/09 02:34:23;;;;;;;;;;;;;;;17.83;57.29;99463.03;3172700;28;19978;-64
2023/06/09 02:35:54;;;;;;;;;;;;;;;17.83;57.29;99470.09;3172615;28;19941;-64
2023/06/09 02:37:26;;;;;;;;;;;;;;;17.83;57.27;99468.31;3172791;28;19923;-64
2023/06/09 02:38:57;;;;;;;;;;;;;;;17.81;57.30;99478.16;3173046;28;19932;-64
2023/06/09 02:40:29;;;;;;;;;;;;;;;17.79;57.39;99474.78;3172753;28;19928;-64
2023/06/09 02:42:00;;;;;;;;;;;;;;;17.77;57.29;99471.41;3172905;28;20406;-64
2023/06/09 02:43:33;;;;;;;;;;;;;;;17.74;57.63;99469.84;3172614;28;20170;-64
2023/06/09 02:45:05;;;;;;;;;;;;;;;17.71;57.46;99464.81;3172757;28;19928;-64
2023/06/09 02:46:39;;;;;;;;;;;;;;;17.68;57.75;99472.97;3160156;28;20789;-64
2023/06/09 02:48:10;;;;;;;;;;;;;;;17.66;57.76;99464.38;3172235;28;19928;-64
2023/06/09 02:49:42;;;;;;;;;;;;;;;17.65;57.72;99469.75;3172928;28;19924;-64
2023/06/09 02:51:14;;;;;;;;;;;;;;;17.62;57.78;99470.84;3172322;28;19931;-64
2023/06/09 02:52:46;;;;;;;;;;;;;;;17.63;57.70;99477.78;3172791;28;20006;-64
2023/06/09 02:54:18;;;;;;;;;;;;;;;17.61;57.95;99471.81;3172806;28;19924;-64
2023/06/09 02:55:49;;;;;;;;;;;;;;;17.61;57.92;99470.97;3172518;28;20018;-64
2023/06/09 02:57:21;;;;;;;;;;;;;;;17.59;57.92;99480.78;3172671;28;19923;-64
2023/06/09 02:58:53;;;;;;;;;;;;;;;17.58;57.99;99476.47;3172610;28;19977;-65
2023/06/09 03:00:25;;;;;;;;;;;;;;;17.58;57.99;99473.84;3172614;28;19934;-64
2023/06/09 03:01:55;;;;;;;;;;;;;;;17.58;57.99;99473.84;3172559;28;19961;-65
2023/06/09 03:03:28;;;;;;;;;;;;;;;17.58;57.93;99479.94;3172451;28;20409;-65
2023/06/09 03:04:59;;;;;;;;;;;;;;;17.57;58.06;99475.66;3172623;28;20416;-64
2023/06/09 03:06:32;;;;;;;;;;;;;;;17.58;58.08;99479.13;3172498;28;19934;-64
2023/06/09 03:08:05;;;;;;;;;;;;;;;17.57;57.78;99486.19;3172445;28;19932;-64
2023/06/09 03:09:36;;;;;;;;;;;;;;;17.53;57.94;99479.47;3172535;28;19928;-64
2023/06/09 03:11:07;;;;;;;;;;;;;;;17.50;58.13;99477.91;3172597;28;19924;-64
2023/06/09 03:12:38;;;;;;;;;;;;;;;17.47;58.27;99475.50;3170856;28;19930;-64
2023/06/09 03:14:10;;;;;;;;;;;;;;;17.47;58.17;99478.16;3172161;28;19927;-64
2023/06/09 03:15:42;;;;;;;;;;;;;;;17.48;58.31;99479.84;3172480;28;20348;-64
2023/06/09 03:17:13;;;;;;;;;;;;;;;17.49;58.22;99478.03;3172717;28;19967;-64
2023/06/09 03:18:45;;;;;;;;;;;;;;;17.47;58.14;99478.16;3172235;28;20293;-64
2023/06/09 03:20:16;;;;;;;;;;;;;;;17.48;58.30;99482.47;3172527;28;19931;-64
2023/06/09 03:21:48;;;;;;;;;;;;;;;17.48;58.27;99476.34;3170702;28;20018;-65
2023/06/09 03:23:20;;;;;;;;;;;;;;;17.47;58.24;99480.78;3172502;28;19928;-64
2023/06/09 03:24:52;;;;;;;;;;;;;;;17.45;58.55;99485.34;3172191;28;20030;-64
2023/06/09 03:26:24;;;;;;;;;;;;;;;17.43;58.43;99484.63;3172433;28;20018;-65
2023/06/09 03:27:55;;;;;;;;;;;;;;;17.42;58.46;99479.47;3172609;28;19928;-64
2023/06/09 03:29:29;;;;;;;;;;;;;;;17.43;58.47;99478.53;3172092;28;19981;-64
2023/06/09 03:31:00;;;;;;;;;;;;;;;17.42;58.46;99482.97;3170138;28;20718;-64
2023/06/09 03:32:32;;;;;;;;;;;;;;;17.45;58.54;99484.50;3172075;28;19928;-66
2023/06/09 03:34:03;;;;;;;;;;;;;;;17.47;58.20;99486.03;3172305;28;19924;-68
2023/06/09 03:35:34;;;;;;;;;;;;;;;17.45;58.40;99487.13;3172004;28;19935;-66
2023/06/09 03:37:09;;;;;;;;;;;;;;;17.43;58.56;99482.00;3171705;28;19923;-67
2023/06/09 03:38:39;;;;;;;;;;;;;;;17.45;58.57;99484.50;3172177;28;19924;-66
2023/06/09 03:40:12;;;;;;;;;;;;;;;17.43;58.57;99487.25;3172289;28;19946;-69
2023/06/09 03:41:43;;;;;;;;;;;;;;;17.41;58.58;99486.53;3171995;28;19924;-65
2023/06/09 03:43:14;;;;;;;;;;;;;;;17.39;58.79;99499.00;3169154;28;19926;-66
2023/06/09 03:44:47;;;;;;;;;;;;;;;17.40;58.87;99490.13;3169646;28;19928;-67
2023/06/09 03:46:18;;;;;;;;;;;;;;;17.41;58.80;99490.97;3171900;28;19924;-68
2023/06/09 03:47:50;;;;;;;;;;;;;;;17.40;58.78;99492.75;3172110;28;19927;-67
2023/06/09 03:49:22;;;;;;;;;;;;;;;17.40;58.70;99495.41;3171605;28;20489;-68
2023/06/09 03:50:52;;;;;;;;;;;;;;;17.43;58.68;99487.25;3171927;28;19944;-65
2023/06/09 03:52:25;;;;;;;;;;;;;;;17.46;58.62;99491.44;3171780;28;20391;-67
2023/06/09 03:53:57;;;;;;;;;;;;;;;17.48;58.44;99494.78;3171575;28;19985;-65
2023/06/09 03:55:31;;;;;;;;;;;;;;;17.49;58.60;99494.66;3170704;28;20377;-64
2023/06/09 03:57:01;;;;;;;;;;;;;;;17.49;58.51;99492.03;3171772;28;20293;-65
2023/06/09 03:58:33;;;;;;;;;;;;;;;17.50;58.63;99498.97;3171362;28;19970;-65
2023/06/09 04:00:07;;;;;;;;;;;;;;;17.49;58.59;99492.03;3171918;28;20641;-65
2023/06/09 04:01:40;;;;;;;;;;;;;;;17.46;58.75;99492.28;3171287;28;19928;-65
2023/06/09 04:03:18;;;;;;;;;;;;;;;17.45;58.95;99493.25;3171885;28;19924;-65
2023/06/09 04:04:49;;;;;;;;;;;;;;;17.43;59.15;99495.16;3171628;28;19935;-66
2023/06/09 04:06:21;;;;;;;;;;;;;;;17.39;59.35;99496.38;3171744;28;19928;-66
2023/06/09 04:07:53;;;;;;;;;;;;;;;17.38;59.42;99488.56;3159732;28;19924;-67
2023/06/09 04:09:24;;;;;;;;;;;;;;;17.34;59.64;99495.88;3172178;28;19927;-66
2023/06/09 04:10:56;;;;;;;;;;;;;;;17.30;59.89;99494.44;3170760;28;19928;-67
2023/06/09 04:12:26;;;;;;;;;;;;;;;17.27;60.02;99494.66;3171746;28;19931;-66
2023/06/09 04:13:58;;;;;;;;;;;;;;;17.27;60.20;99494.66;3171569;28;19930;-65
2023/06/09 04:15:31;;;;;;;;;;;;;;;17.30;60.01;99491.78;3172032;28;19976;-65
2023/06/09 04:17:03;;;;;;;;;;;;;;;17.35;59.98;99499.34;3171338;28;19938;-65
2023/06/09 04:18:33;;;;;;;;;;;;;;;17.39;59.94;99491.09;3171841;28;20412;-70
2023/06/09 04:20:07;;;;;;;;;;;;;;;17.40;59.84;99492.75;3171659;28;19939;-70
2023/06/09 04:21:39;;;;;;;;;;;;;;;17.40;59.94;99494.56;3162208;28;20235;-65
2023/06/09 04:23:11;;;;;;;;;;;;;;;17.38;60.19;99489.41;3171430;28;20041;-66
2023/06/09 04:24:42;;;;;;;;;;;;;;;17.40;60.01;99495.41;3172149;28;19928;-71
2023/06/09 04:26:14;;;;;;;;;;;;;;;17.45;59.92;99500.28;3171612;28;20003;-68
2023/06/09 04:27:48;;;;;;;;;;;;;;;17.48;59.78;99495.63;3171307;28;19996;-67
2023/06/09 04:29:22;;;;;;;;;;;;;;;17.52;59.70;99493.59;3171474;28;19928;-68
2023/06/09 04:30:57;;;;;;;;;;;;;;;17.55;59.67;99498.63;3171479;28;19928;-69
2023/06/09 04:32:32;;;;;;;;;;;;;;;17.58;59.69;99497.53;3171360;28;19923;-66
2023/06/09 04:34:10;;;;;;;;;;;;;;;17.57;59.57;99495.84;3171391;28;19924;-71
2023/06/09 04:35:43;;;;;;;;;;;;;;;17.55;60.01;99500.41;3171034;28;20381;-67
2023/06/09 04:37:13;;;;;;;;;;;;;;;17.55;60.09;99495.97;3170852;28;19975;-69
2023/06/09 04:38:46;;;;;;;;;;;;;;;17.59;59.90;99492.13;3171327;28;19931;-72
2023/06/09 04:40:21;;;;;;;;;;;;;;;17.63;59.80;99487.47;3171465;28;20022;-75
2023/06/09 04:41:53;;;;;;;;;;;;;;;17.68;59.62;99487.94;3171549;28;19924;-76
2023/06/09 04:43:28;;;;;;;;;;;;;;;17.73;59.80;99497.16;3171326;28;19924;-74
2023/06/09 04:45:02;;;;;;;;;;;;;;;17.73;59.81;99496.31;3172069;28;20018;-67
2023/06/09 04:46:37;;;;;;;;;;;;;;;17.72;60.06;99492.84;3171014;28;19967;-68
2023/06/09 04:48:09;;;;;;;;;;;;;;;17.68;60.33;99494.03;3171161;28;20007;-68
2023/06/09 04:49:41;;;;;;;;;;;;;;;17.69;60.36;99495.72;3171194;28;19923;-69
2023/06/09 04:51:16;;;;;;;;;;;;;;;17.70;60.49;99499.19;3165979;28;19927;-66
2023/06/09 04:52:53;;;;;;;;;;;;;;;17.73;60.46;99498.97;3167469;28;19924;-68
2023/06/09 04:54:25;;;;;;;;;;;;;;;17.76;60.58;99501.34;3170985;28;20328;-66
2023/06/09 04:55:58;;;;;;;;;;;;;;;17.76;60.97;99493.44;3170811;28;19981;-65
2023/06/09 04:57:32;;;;;;;;;;;;;;;17.80;60.78;99501.97;3161605;28;19935;-65
2023/06/09 04:59:04;;;;;;;;;;;;;;;17.85;60.68;99499.81;3168953;28;20053;-64
2023/06/09 05:00:35;;;;;;;;;;;;;;;17.90;60.42;99503.75;3170933;28;19927;-66
2023/06/09 05:02:08;;;;;;;;;;;;;;;17.95;60.24;99492.81;3170384;28;19927;-65
2023/06/09 05:03:40;;;;;;;;;;;;;;;18.00;60.29;99492.47;3170563;28;19939;-65
2023/06/09 05:05:12;;;;;;;;;;;;;;;18.05;60.05;99487.66;3171019;28;20396;-66
2023/06/09 05:06:44;;;;;;;;;;;;;;;18.11;60.11;99492.44;3170298;28;19977;-66
2023/06/09 05:08:16;;;;;;;;;;;;;;;18.14;60.16;99489.56;3167620;28;19940;-64
2023/06/09 05:09:47;;;;;;;;;;;;;;;18.17;60.05;99497.22;3170947;28;19993;-65
2023/06/09 05:11:18;;;;;;;;;;;;;;;18.22;59.97;99491.53;3170764;28;20695;-66
2023/06/09 05:12:50;;;;;;;;;;;;;;;18.28;59.81;99489.25;3170582;28;20293;-65
2023/06/09 05:14:21;;;;;;;;;;;;;;;18.34;59.78;99491.41;3164601;28;19974;-65
2023/06/09 05:15:53;;;;;;;;;;;;;;;18.40;59.60;99490.88;3170590;28;20385;-65
2023/06/09 05:17:26;;;;;;;;;;;;;;;18.47;59.47;99485.09;3170635;28;19977;-65
2023/06/09 05:18:58;;;;;;;;;;;;;;;18.53;59.37;99489.88;3170509;28;19977;-65
2023/06/09 05:20:30;;;;;;;;;;;;;;;18.57;59.31;99488.63;3170394;28;20369;-64
2023/06/09 05:22:02;;;;;;;;;;;;;;;18.64;59.09;99497.72;3170450;28;19924;-64
2023/06/09 05:23:34;;;;;;;;;;;;;;;18.70;59.16;99499.00;3170679;28;19928;-63
2023/06/09 05:25:08;;;;;;;;;;;;;;;18.77;59.01;99493.09;3170369;28;19971;-64
2023/06/09 05:26:39;;;;;;;;;;;;;;;18.81;58.94;99494.53;3171011;28;19934;-64
2023/06/09 05:28:11;;;;;;;;;;;;;;;18.85;58.67;99493.31;3170599;28;19931;-63
2023/06/09 05:29:43;;;;;;;;;;;;;;;18.92;58.77;99495.44;3170331;28;19923;-67
2023/06/09 05:31:16;;;;;;;;;;;;;;;18.94;58.68;99491.69;3170487;28;20496;-66
2023/06/09 05:32:49;;;;;;;;;;;;;;;18.96;58.72;99494.19;3170620;28;20010;-66
2023/06/09 05:34:24;;;;;;;;;;;;;;;18.98;58.66;99494.91;3170725;28;19923;-68
2023/06/09 05:35:55;;;;;;;;;;;;;;;19.00;58.53;99492.97;3170472;28;19928;-68
2023/06/09 05:37:27;;;;;;;;;;;;;;;19.01;58.70;99492.00;3170108;28;19929;-68
2023/06/09 05:38:59;;;;;;;;;;;;;;;19.03;58.75;99492.72;3170394;28;19940;-67
2023/06/09 05:40:31;;;;;;;;;;;;;;;19.02;58.96;99493.69;3167882;28;20002;-66
2023/06/09 05:42:03;;;;;;;;;;;;;;;19.06;58.73;99484.53;3170393;28;20309;-66
2023/06/09 05:43:35;;;;;;;;;;;;;;;19.13;58.68;99490.94;3170241;28;20043;-67
2023/06/09 05:45:07;;;;;;;;;;;;;;;19.18;58.79;99493.22;3170407;28;19927;-69
2023/06/09 05:46:45;;;;;;;;;;;;;;;19.22;58.65;99490.16;3158115;28;19993;-69
2023/06/09 05:48:18;;;;;;;;;;;;;;;19.29;58.55;99493.13;3158169;28;19993;-69
2023/06/09 05:49:50;;;;;;;;;;;;;;;19.31;58.42;99494.66;3169987;28;19928;-68
2023/06/09 05:51:22;;;;;;;;;;;;;;;19.33;58.46;99495.34;3161565;28;20293;-67
2023/06/09 05:52:54;;;;;;;;;;;;;;;19.40;58.34;99495.66;3168319;28;19924;-67
2023/06/09 05:54:27;;;;;;;;;;;;;;;19.47;58.18;99501.25;3169648;28;19924;-70
2023/06/09 05:55:58;;;;;;;;;;;;;;;19.54;58.03;99494.47;3170093;28;20461;-68
2023/06/09 05:57:30;;;;;;;;;;;;;;;19.62;57.80;99493.81;3170807;28;19928;-66
2023/06/09 05:59:03;;;;;;;;;;;;;;;19.70;57.61;99486.91;3170306;28;19924;-67
2023/06/09 06:00:35;;;;;;;;;;;;;;;19.81;57.28;99483.28;3170407;28;19927;-70
2023/06/09 06:02:07;;;;;;;;;;;;;;;19.89;57.33;99496.66;3170651;28;19977;-66
2023/06/09 06:03:41;;;;;;;;;;;;;;;19.96;57.32;99499.59;3170603;28;19931;-67
2023/06/09 06:05:13;;;;;;;;;;;;;;;20.02;57.00;99491.13;3170508;28;19928;-67
2023/06/09 06:06:45;;;;;;;;;;;;;;;20.09;57.11;99500.19;3166175;28;19934;-68
2023/06/09 06:08:17;;;;;;;;;;;;;;;20.16;56.74;99506.59;3170639;28;20011;-66
2023/06/09 06:09:49;;;;;;;;;;;;;;;20.18;56.79;99494.06;3164952;28;20478;-67
2023/06/09 06:11:20;;;;;;;;;;;;;;;20.21;56.71;99488.50;3162706;28;20212;-68
2023/06/09 06:12:52;;;;;;;;;;;;;;;20.27;56.67;99492.41;3164804;28;20008;-68
2023/06/09 06:14:24;;;;;;;;;;;;;;;20.31;56.57;99487.66;3165292;28;20340;-69
2023/06/09 06:15:57;;;;;;;;;;;;;;;20.35;56.37;99492.56;3164398;28;19927;-67
2023/06/09 06:17:29;;;;;;;;;;;;;;;20.44;56.64;99493.53;3164413;28;19932;-67
2023/06/09 06:19:02;;;;;;;;;;;;;;;20.50;56.25;99486.81;3165125;28;19997;-68
2023/06/09 06:20:42;;;;;;;;;;;;;;;20.60;56.42;99482.41;3165993;28;19928;-68
2023/06/09 06:22:17;;;;;;;;;;;;;;;20.70;56.11;99485.03;3156440;28;19928;-67
2023/06/09 06:23:49;;;;;;;;;;;;;;;20.76;55.95;99471.22;3152679;28;20118;-67
2023/06/09 06:25:30;;;;;;;;;;;;;;;20.83;56.04;99478.47;3164665;28;19931;-67
2023/06/09 06:27:08;;;;;;;;;;;;;;;20.91;55.63;99475.09;3152556;28;19981;-67
2023/06/09 06:28:42;;;;;;;;;;;;;;;20.96;55.61;99475.50;3152822;28;20395;-66
2023/06/09 06:30:22;;;;;;;;;;;;;;;20.97;55.36;99476.31;3165815;28;19931;-66
2023/06/09 06:31:58;;;;;;;;;;;;;;;20.90;55.61;99461.03;3154189;28;19935;-67
2023/06/09 06:33:31;;;;;;;;;;;;;;;21.01;55.30;99475.91;3164169;28;19934;-66
2023/06/09 06:35:36;;;;;;;;;;;;;;;21.01;55.30;99472.44;3164076;28;19943;-67
2023/06/09 06:37:11;;;;;;;;;;;;;;;21.02;55.34;99474.91;3110864;28;20481;-68
2023/06/09 06:38:41;;;;;;;;;;;;;;;21.09;55.46;99462.78;3164985;28;20496;-63
2023/06/09 06:40:16;;;;;;;;;;;;;;;21.15;55.26;99471.97;3165040;28;19997;-69
2023/06/09 06:41:48;;;;;;;;;;;;;;;21.20;55.04;99475.00;3152565;28;20465;-67
2023/06/09 06:43:20;;;;;;;;;;;;;;;21.21;55.07;99465.22;3157401;28;20339;-66
2023/06/09 06:44:51;;;;;;;;;;;;;;;21.25;55.14;99462.16;3165217;28;19927;-67
2023/06/09 06:46:23;;;;;;;;;;;;;;;21.32;54.98;99465.88;3161059;28;20001;-67
2023/06/09 06:47:54;;;;;;;;;;;;;;;21.48;54.32;99469.78;3162201;28;20393;-67
2023/06/09 06:49:26;;;;;;;;;;;;;;;21.66;54.12;99470.63;3164886;28;20401;-66
2023/06/09 06:50:58;;;;;;;;;;;;;;;21.80;53.98;99467.50;3164635;28;19932;-67
2023/06/09 06:52:33;;;;;;;;;;;;;;;21.88;53.80;99468.53;3164233;28;20041;-66
2023/06/09 06:54:04;;;;;;;;;;;;;;;21.92;53.70;99467.28;3165201;28;19961;-66
2023/06/09 06:55:37;;;;;;;;;;;;;;;21.95;53.28;99469.63;3164667;28;19950;-68
2023/06/09 06:57:08;;;;;;;;;;;;;;;21.99;53.28;99465.69;3165779;28;19956;-67
2023/06/09 06:58:40;;;;;;;;;;;;;;;22.03;53.45;99459.09;3165348;28;19938;-67
2023/06/09 07:00:14;;;;;;;;;;;;;;;22.03;53.21;99459.91;3165833;28;20340;-67
2023/06/09 07:01:46;;;;;;;;;;;;;;;22.05;53.40;99451.81;3167394;28;19967;-66
2023/06/09 07:03:19;;;;;;;;;;;;;;;22.04;53.08;99453.66;3158439;28;20422;-68
2023/06/09 07:04:50;;;;;;;;;;;;;;;22.07;53.04;99452.50;3165418;28;19928;-67
2023/06/09 07:06:22;;;;;;;;;;;;;;;22.11;52.88;99450.38;3160757;28;19977;-66
2023/06/09 07:07:55;;;;;;;;;;;;;;;22.16;52.81;99453.44;3166987;28;19974;-66
2023/06/09 07:09:27;;;;;;;;;;;;;;;22.19;52.49;99448.66;3166892;28;19985;-67
2023/06/09 07:11:00;;;;;;;;;;;;;;;22.23;52.76;99449.19;3154455;28;19935;-67
2023/06/09 07:12:33;;;;;;;;;;;;;;;22.34;51.96;99442.84;3166709;28;20403;-67
2023/06/09 07:14:04;;;;;;;;;;;;;;;22.42;51.89;99445.53;3166485;28;19953;-66
2023/06/09 07:15:38;;;;;;;;;;;;;;;22.57;51.88;99449.31;3166850;28;19928;-67
2023/06/09 07:17:09;;;;;;;;;;;;;;;22.74;51.57;99441.44;3166742;28;20381;-66
2023/06/09 07:18:41;;;;;;;;;;;;;;;22.88;50.98;99438.22;3166866;28;20071;-65
2023/06/09 07:20:13;;;;;;;;;;;;;;;23.04;50.98;99442.81;3166993;28;20365;-68
2023/06/09 07:21:45;;;;;;;;;;;;;;;23.15;50.63;99445.19;3166970;28;19985;-65
2023/06/09 07:23:18;;;;;;;;;;;;;;;23.29;50.42;99449.91;3166851;28;20355;-64
2023/06/09 07:24:49;;;;;;;;;;;;;;;23.43;50.28;99445.00;3166672;28;20168;-65
2023/06/09 07:26:21;;;;;;;;;;;;;;;23.55;49.79;99441.06;3166532;28;19985;-64
2023/06/09 07:27:53;;;;;;;;;;;;;;;23.70;49.85;99435.97;3166937;28;19986;-64
2023/06/09 07:29:25;;;;;;;;;;;;;;;23.87;49.31;99436.81;3166837;28;19928;-62
2023/06/09 07:30:57;;;;;;;;;;;;;;;24.01;49.12;99436.19;3165107;28;20404;-64
2023/06/09 07:32:29;;;;;;;;;;;;;;;24.13;49.04;99434.84;3162413;28;19949;-64
2023/06/09 07:34:00;;;;;;;;;;;;;;;24.24;48.56;99436.38;3166927;28;20332;-63
2023/06/09 07:35:32;;;;;;;;;;;;;;;24.34;48.36;99450.34;3166729;28;20019;-63
2023/06/09 07:37:05;;;;;;;;;;;;;;;24.34;47.94;99446.84;3165058;28;19932;-65
2023/06/09 07:38:39;;;;;;;;;;;;;;;24.27;47.47;99436.03;3166920;28;19928;-68
2023/06/09 07:40:11;;;;;;;;;;;;;;;24.22;47.40;99435.69;3155025;28;20396;-68
2023/06/09 07:41:42;;;;;;;;;;;;;;;24.13;47.64;99434.03;3164768;28;19928;-68
2023/06/09 07:43:14;;;;;;;;;;;;;;;24.05;47.73;99429.56;3163877;28;20332;-68
2023/06/09 07:44:46;;;;;;;;;;;;;;;24.04;47.60;99433.19;3158505;28;19928;-67
2023/06/09 07:46:17;;;;;;;;;;;;;;;24.04;47.82;99428.69;3162273;28;19935;-66
2023/06/09 07:47:50;;;;;;;;;;;;;;;24.07;47.24;99431.03;3166721;28;20032;-66
2023/06/09 07:49:21;;;;;;;;;;;;;;;24.10;47.56;99435.19;3166714;28;19958;-65
2023/06/09 07:50:53;;;;;;;;;;;;;;;24.15;47.30;99426.72;3166629;28;19928;-66
2023/06/09 07:52:25;;;;;;;;;;;;;;;24.19;47.32;99431.53;3166763;28;19993;-67
2023/06/09 07:53:58;;;;;;;;;;;;;;;24.26;47.16;99437.03;3166732;28;20026;-66
2023/06/09 07:55:30;;;;;;;;;;;;;;;24.32;47.09;99438.22;3162391;28;20290;-66
2023/06/09 07:57:02;;;;;;;;;;;;;;;24.40;47.01;99427.53;3166658;28;19927;-66
2023/06/09 07:58:34;;;;;;;;;;;;;;;24.51;46.89;99432.56;3166795;28;19928;-66
2023/06/09 08:00:07;;;;;;;;;;;;;;;24.61;46.79;99433.22;3164449;28;19932;-65
2023/06/09 08:01:39;;;;;;;;;;;;;;;24.70;46.19;99439.38;3167400;28;20023;-66
2023/06/09 08:03:11;;;;;;;;;;;;;;;24.76;46.43;99428.06;3165985;28;19931;-67